sensor_id;sensor_type;location;lat;lon;timestamp;P1;durP1;ratioP1;P2;durP2;ratioP2
10910;SDS011;5508;49.150;11.030;2024-02-21T00:00:43;10.23;;;4.27;;
10910;SDS011;5508;49.150;11.030;2024-02-21T00:03:43;7.43;;;4.07;;
10910;SDS011;5508;49.150;11.030;2024-02-21T00:06:44;14.70;;;4.43;;
10910;SDS011;5508;49.150;11.030;2024-02-21T00:09:45;13.20;;;4.97;;
10910;SDS011;5508;49.150;11.030;2024-02-21T00:12:45;13.27;;;4.87;;
10910;SDS011;5508;49.150;11.030;2024-02-21T00:15:46;8.93;;;3.97;;
10910;SDS011;5508;49.150;11.030;2024-02-21T00:18:47;15.93;;;4.90;;
10910;SDS011;5508;49.150;11.030;2024-02-21T00:21:47;12.30;;;4.83;;
10910;SDS011;5508;49.150;11.030;2024-02-21T00:24:48;16.97;;;4.40;;
10910;SDS011;5508;49.150;11.030;2024-02-21T00:27:48;17.33;;;4.83;;
10910;SDS011;5508;49.150;11.030;2024-02-21T00:30:49;17.23;;;5.43;;
10910;SDS011;5508;49.150;11.030;2024-02-21T00:33:50;11.10;;;4.93;;
10910;SDS011;5508;49.150;11.030;2024-02-21T00:36:51;9.67;;;4.93;;
10910;SDS011;5508;49.150;11.030;2024-02-21T00:39:52;12.87;;;4.23;;
10910;SDS011;5508;49.150;11.030;2024-02-21T00:42:56;11.80;;;4.63;;
10910;SDS011;5508;49.150;11.030;2024-02-21T00:45:57;15.13;;;5.50;;
10910;SDS011;5508;49.150;11.030;2024-02-21T00:48:57;13.23;;;4.70;;
10910;SDS011;5508;49.150;11.030;2024-02-21T00:51:58;11.53;;;4.93;;
10910;SDS011;5508;49.150;11.030;2024-02-21T00:54:58;12.83;;;4.83;;
10910;SDS011;5508;49.150;11.030;2024-02-21T00:57:59;17.73;;;5.43;;
10910;SDS011;5508;49.150;11.030;2024-02-21T01:01:00;25.70;;;6.43;;
10910;SDS011;5508;49.150;11.030;2024-02-21T01:04:01;15.23;;;5.33;;
10910;SDS011;5508;49.150;11.030;2024-02-21T01:07:02;17.27;;;5.53;;
10910;SDS011;5508;49.150;11.030;2024-02-21T01:10:03;12.73;;;5.67;;
10910;SDS011;5508;49.150;11.030;2024-02-21T01:13:03;21.00;;;5.20;;
10910;SDS011;5508;49.150;11.030;2024-02-21T01:16:04;15.80;;;5.27;;
10910;SDS011;5508;49.150;11.030;2024-02-21T01:19:06;11.70;;;4.53;;
10910;SDS011;5508;49.150;11.030;2024-02-21T01:22:06;16.17;;;4.70;;
10910;SDS011;5508;49.150;11.030;2024-02-21T01:25:07;13.67;;;4.60;;
10910;SDS011;5508;49.150;11.030;2024-02-21T01:28:08;21.00;;;5.03;;
10910;SDS011;5508;49.150;11.030;2024-02-21T01:31:08;9.20;;;4.80;;
10910;SDS011;5508;49.150;11.030;2024-02-21T01:34:09;14.30;;;6.07;;
10910;SDS011;5508;49.150;11.030;2024-02-21T01:37:09;12.07;;;4.60;;
10910;SDS011;5508;49.150;11.030;2024-02-21T01:40:10;13.57;;;5.07;;
10910;SDS011;5508;49.150;11.030;2024-02-21T01:43:19;13.87;;;4.70;;
10910;SDS011;5508;49.150;11.030;2024-02-21T01:46:20;13.13;;;4.90;;
10910;SDS011;5508;49.150;11.030;2024-02-21T01:49:20;20.17;;;5.43;;
10910;SDS011;5508;49.150;11.030;2024-02-21T01:52:22;15.53;;;4.90;;
10910;SDS011;5508;49.150;11.030;2024-02-21T01:55:22;11.13;;;4.10;;
10910;SDS011;5508;49.150;11.030;2024-02-21T01:58:23;14.57;;;5.37;;
10910;SDS011;5508;49.150;11.030;2024-02-21T02:01:24;10.17;;;4.40;;
10910;SDS011;5508;49.150;11.030;2024-02-21T02:04:25;15.93;;;5.33;;
10910;SDS011;5508;49.150;11.030;2024-02-21T02:07:26;11.33;;;4.83;;
10910;SDS011;5508;49.150;11.030;2024-02-21T02:10:27;8.73;;;4.57;;
10910;SDS011;5508;49.150;11.030;2024-02-21T02:13:28;9.27;;;4.50;;
10910;SDS011;5508;49.150;11.030;2024-02-21T02:16:28;12.93;;;4.47;;
10910;SDS011;5508;49.150;11.030;2024-02-21T02:19:29;14.90;;;4.87;;
10910;SDS011;5508;49.150;11.030;2024-02-21T02:22:30;15.10;;;5.07;;
10910;SDS011;5508;49.150;11.030;2024-02-21T02:25:33;16.37;;;5.63;;
10910;SDS011;5508;49.150;11.030;2024-02-21T02:28:34;16.10;;;4.70;;
10910;SDS011;5508;49.150;11.030;2024-02-21T02:31:36;12.87;;;5.03;;
10910;SDS011;5508;49.150;11.030;2024-02-21T02:34:38;12.07;;;4.60;;
10910;SDS011;5508;49.150;11.030;2024-02-21T02:37:39;13.37;;;4.27;;
10910;SDS011;5508;49.150;11.030;2024-02-21T02:40:39;16.77;;;4.63;;
10910;SDS011;5508;49.150;11.030;2024-02-21T02:43:40;10.00;;;3.77;;
10910;SDS011;5508;49.150;11.030;2024-02-21T02:46:41;19.97;;;5.13;;
10910;SDS011;5508;49.150;11.030;2024-02-21T02:49:42;8.17;;;4.23;;
10910;SDS011;5508;49.150;11.030;2024-02-21T02:52:43;11.87;;;4.37;;
10910;SDS011;5508;49.150;11.030;2024-02-21T02:55:44;12.70;;;4.30;;
10910;SDS011;5508;49.150;11.030;2024-02-21T02:58:45;10.43;;;4.10;;
10910;SDS011;5508;49.150;11.030;2024-02-21T03:01:46;9.77;;;4.07;;
10910;SDS011;5508;49.150;11.030;2024-02-21T03:04:46;13.70;;;4.23;;
10910;SDS011;5508;49.150;11.030;2024-02-21T03:07:47;18.80;;;4.70;;
10910;SDS011;5508;49.150;11.030;2024-02-21T03:10:49;7.63;;;3.83;;
10910;SDS011;5508;49.150;11.030;2024-02-21T03:13:49;12.70;;;4.10;;
10910;SDS011;5508;49.150;11.030;2024-02-21T03:16:51;15.53;;;5.23;;
10910;SDS011;5508;49.150;11.030;2024-02-21T03:19:51;13.77;;;4.53;;
10910;SDS011;5508;49.150;11.030;2024-02-21T03:22:52;16.43;;;4.13;;
10910;SDS011;5508;49.150;11.030;2024-02-21T03:25:53;12.13;;;4.80;;
10910;SDS011;5508;49.150;11.030;2024-02-21T03:28:53;10.77;;;3.90;;
10910;SDS011;5508;49.150;11.030;2024-02-21T03:31:54;17.27;;;4.43;;
10910;SDS011;5508;49.150;11.030;2024-02-21T03:34:55;14.43;;;5.07;;
10910;SDS011;5508;49.150;11.030;2024-02-21T03:37:55;17.23;;;4.60;;
10910;SDS011;5508;49.150;11.030;2024-02-21T03:40:56;9.93;;;4.50;;
10910;SDS011;5508;49.150;11.030;2024-02-21T03:43:57;13.57;;;4.57;;
10910;SDS011;5508;49.150;11.030;2024-02-21T03:46:58;12.20;;;4.13;;
10910;SDS011;5508;49.150;11.030;2024-02-21T03:49:59;16.50;;;4.70;;
10910;SDS011;5508;49.150;11.030;2024-02-21T03:53:00;10.83;;;4.07;;
10910;SDS011;5508;49.150;11.030;2024-02-21T03:56:01;11.70;;;4.00;;
10910;SDS011;5508;49.150;11.030;2024-02-21T03:59:03;13.33;;;4.53;;
10910;SDS011;5508;49.150;11.030;2024-02-21T04:02:04;13.47;;;4.00;;
10910;SDS011;5508;49.150;11.030;2024-02-21T04:05:08;12.93;;;4.57;;
10910;SDS011;5508;49.150;11.030;2024-02-21T04:08:11;12.97;;;4.30;;
10910;SDS011;5508;49.150;11.030;2024-02-21T04:11:11;15.43;;;5.00;;
10910;SDS011;5508;49.150;11.030;2024-02-21T04:14:12;18.80;;;4.63;;
10910;SDS011;5508;49.150;11.030;2024-02-21T04:17:13;18.77;;;4.27;;
10910;SDS011;5508;49.150;11.030;2024-02-21T04:20:14;9.03;;;3.90;;
10910;SDS011;5508;49.150;11.030;2024-02-21T04:23:16;14.43;;;4.10;;
10910;SDS011;5508;49.150;11.030;2024-02-21T04:26:16;8.60;;;4.07;;
10910;SDS011;5508;49.150;11.030;2024-02-21T04:29:17;10.00;;;3.97;;
10910;SDS011;5508;49.150;11.030;2024-02-21T04:32:17;17.63;;;4.53;;
10910;SDS011;5508;49.150;11.030;2024-02-21T04:35:18;9.77;;;3.53;;
10910;SDS011;5508;49.150;11.030;2024-02-21T04:38:18;14.73;;;4.53;;
10910;SDS011;5508;49.150;11.030;2024-02-21T04:41:19;8.63;;;4.20;;
10910;SDS011;5508;49.150;11.030;2024-02-21T04:44:19;23.83;;;4.90;;
10910;SDS011;5508;49.150;11.030;2024-02-21T04:47:22;23.90;;;13.00;;
10910;SDS011;5508;49.150;11.030;2024-02-21T04:50:26;21.03;;;11.17;;
10910;SDS011;5508;49.150;11.030;2024-02-21T04:53:27;18.03;;;6.87;;
10910;SDS011;5508;49.150;11.030;2024-02-21T04:56:28;8.67;;;5.13;;
10910;SDS011;5508;49.150;11.030;2024-02-21T04:59:28;15.07;;;5.83;;
10910;SDS011;5508;49.150;11.030;2024-02-21T05:02:29;15.17;;;5.50;;
10910;SDS011;5508;49.150;11.030;2024-02-21T05:05:30;14.97;;;5.03;;
10910;SDS011;5508;49.150;11.030;2024-02-21T05:08:30;20.87;;;5.93;;
10910;SDS011;5508;49.150;11.030;2024-02-21T05:11:31;10.40;;;5.20;;
10910;SDS011;5508;49.150;11.030;2024-02-21T05:14:32;11.67;;;4.93;;
10910;SDS011;5508;49.150;11.030;2024-02-21T05:17:32;19.37;;;6.17;;
10910;SDS011;5508;49.150;11.030;2024-02-21T05:20:33;15.10;;;5.23;;
10910;SDS011;5508;49.150;11.030;2024-02-21T05:23:34;20.50;;;5.90;;
10910;SDS011;5508;49.150;11.030;2024-02-21T05:26:34;12.23;;;5.10;;
10910;SDS011;5508;49.150;11.030;2024-02-21T05:29:35;19.00;;;6.03;;
10910;SDS011;5508;49.150;11.030;2024-02-21T05:32:35;25.60;;;8.80;;
10910;SDS011;5508;49.150;11.030;2024-02-21T05:35:36;21.70;;;6.40;;
10910;SDS011;5508;49.150;11.030;2024-02-21T05:38:37;21.83;;;8.93;;
10910;SDS011;5508;49.150;11.030;2024-02-21T05:41:37;23.17;;;8.73;;
10910;SDS011;5508;49.150;11.030;2024-02-21T05:44:38;19.03;;;10.27;;
10910;SDS011;5508;49.150;11.030;2024-02-21T05:47:38;25.30;;;14.03;;
10910;SDS011;5508;49.150;11.030;2024-02-21T05:50:39;20.03;;;8.27;;
10910;SDS011;5508;49.150;11.030;2024-02-21T05:53:40;17.93;;;8.13;;
10910;SDS011;5508;49.150;11.030;2024-02-21T05:56:47;13.83;;;6.17;;
10910;SDS011;5508;49.150;11.030;2024-02-21T05:59:47;39.90;;;9.97;;
10910;SDS011;5508;49.150;11.030;2024-02-21T06:02:48;15.47;;;7.07;;
10910;SDS011;5508;49.150;11.030;2024-02-21T06:05:49;27.27;;;14.33;;
10910;SDS011;5508;49.150;11.030;2024-02-21T06:08:50;33.17;;;17.23;;
10910;SDS011;5508;49.150;11.030;2024-02-21T06:11:50;42.27;;;21.63;;
10910;SDS011;5508;49.150;11.030;2024-02-21T06:14:51;48.23;;;17.60;;
10910;SDS011;5508;49.150;11.030;2024-02-21T06:17:52;34.17;;;16.33;;
10910;SDS011;5508;49.150;11.030;2024-02-21T06:20:53;19.50;;;11.83;;
10910;SDS011;5508;49.150;11.030;2024-02-21T06:23:53;25.47;;;14.63;;
10910;SDS011;5508;49.150;11.030;2024-02-21T06:26:54;30.03;;;14.17;;
10910;SDS011;5508;49.150;11.030;2024-02-21T06:29:54;30.13;;;15.63;;
10910;SDS011;5508;49.150;11.030;2024-02-21T06:32:55;33.50;;;19.60;;
10910;SDS011;5508;49.150;11.030;2024-02-21T06:35:59;27.40;;;15.67;;
10910;SDS011;5508;49.150;11.030;2024-02-21T06:38:59;32.53;;;17.80;;
10910;SDS011;5508;49.150;11.030;2024-02-21T06:42:00;15.10;;;7.73;;
10910;SDS011;5508;49.150;11.030;2024-02-21T06:45:00;30.37;;;16.70;;
10910;SDS011;5508;49.150;11.030;2024-02-21T06:48:01;31.90;;;18.00;;
10910;SDS011;5508;49.150;11.030;2024-02-21T06:51:02;30.10;;;14.20;;
10910;SDS011;5508;49.150;11.030;2024-02-21T06:54:03;20.37;;;14.17;;
10910;SDS011;5508;49.150;11.030;2024-02-21T06:57:04;78.87;;;39.30;;
10910;SDS011;5508;49.150;11.030;2024-02-21T07:00:05;36.27;;;16.67;;
10910;SDS011;5508;49.150;11.030;2024-02-21T07:03:08;25.20;;;8.97;;
10910;SDS011;5508;49.150;11.030;2024-02-21T07:06:08;50.50;;;25.37;;
10910;SDS011;5508;49.150;11.030;2024-02-21T07:09:09;40.37;;;22.73;;
10910;SDS011;5508;49.150;11.030;2024-02-21T07:12:09;23.70;;;13.13;;
10910;SDS011;5508;49.150;11.030;2024-02-21T07:15:10;21.87;;;12.13;;
10910;SDS011;5508;49.150;11.030;2024-02-21T07:18:11;17.27;;;8.33;;
10910;SDS011;5508;49.150;11.030;2024-02-21T07:21:11;13.83;;;7.00;;
10910;SDS011;5508;49.150;11.030;2024-02-21T07:24:12;14.43;;;6.43;;
10910;SDS011;5508;49.150;11.030;2024-02-21T07:27:16;13.77;;;6.37;;
10910;SDS011;5508;49.150;11.030;2024-02-21T07:30:16;10.20;;;6.10;;
10910;SDS011;5508;49.150;11.030;2024-02-21T07:33:17;11.27;;;6.00;;
10910;SDS011;5508;49.150;11.030;2024-02-21T07:36:25;10.13;;;5.40;;
10910;SDS011;5508;49.150;11.030;2024-02-21T07:39:30;19.47;;;9.43;;
10910;SDS011;5508;49.150;11.030;2024-02-21T07:42:30;28.93;;;16.17;;
10910;SDS011;5508;49.150;11.030;2024-02-21T07:45:31;16.20;;;8.30;;
10910;SDS011;5508;49.150;11.030;2024-02-21T07:48:31;25.37;;;10.50;;
10910;SDS011;5508;49.150;11.030;2024-02-21T07:51:32;18.30;;;8.17;;
10910;SDS011;5508;49.150;11.030;2024-02-21T07:54:33;12.87;;;7.07;;
10910;SDS011;5508;49.150;11.030;2024-02-21T07:57:33;25.93;;;11.97;;
10910;SDS011;5508;49.150;11.030;2024-02-21T08:00:34;14.37;;;6.17;;
10910;SDS011;5508;49.150;11.030;2024-02-21T08:03:34;10.67;;;4.23;;
10910;SDS011;5508;49.150;11.030;2024-02-21T08:06:35;11.87;;;5.83;;
10910;SDS011;5508;49.150;11.030;2024-02-21T08:09:35;19.30;;;8.73;;
10910;SDS011;5508;49.150;11.030;2024-02-21T08:12:38;17.07;;;5.10;;
10910;SDS011;5508;49.150;11.030;2024-02-21T08:15:38;18.23;;;6.37;;
10910;SDS011;5508;49.150;11.030;2024-02-21T08:18:43;18.13;;;7.30;;
10910;SDS011;5508;49.150;11.030;2024-02-21T08:21:44;26.33;;;6.83;;
10910;SDS011;5508;49.150;11.030;2024-02-21T08:24:47;16.87;;;7.10;;
10910;SDS011;5508;49.150;11.030;2024-02-21T08:27:48;13.27;;;6.97;;
10910;SDS011;5508;49.150;11.030;2024-02-21T08:30:49;18.07;;;8.63;;
10910;SDS011;5508;49.150;11.030;2024-02-21T08:33:49;14.13;;;6.27;;
10910;SDS011;5508;49.150;11.030;2024-02-21T08:36:50;8.37;;;4.20;;
10910;SDS011;5508;49.150;11.030;2024-02-21T08:39:50;16.37;;;4.50;;
10910;SDS011;5508;49.150;11.030;2024-02-21T08:42:51;8.80;;;3.90;;
10910;SDS011;5508;49.150;11.030;2024-02-21T08:45:53;19.20;;;3.90;;
10910;SDS011;5508;49.150;11.030;2024-02-21T08:48:54;12.63;;;3.67;;
10910;SDS011;5508;49.150;11.030;2024-02-21T08:51:55;11.80;;;4.53;;
10910;SDS011;5508;49.150;11.030;2024-02-21T08:54:55;10.07;;;3.63;;
10910;SDS011;5508;49.150;11.030;2024-02-21T08:57:56;18.40;;;4.30;;
10910;SDS011;5508;49.150;11.030;2024-02-21T09:00:56;11.67;;;3.83;;
10910;SDS011;5508;49.150;11.030;2024-02-21T09:03:57;9.30;;;4.37;;
10910;SDS011;5508;49.150;11.030;2024-02-21T09:06:58;23.60;;;4.40;;
10910;SDS011;5508;49.150;11.030;2024-02-21T09:09:59;16.87;;;4.10;;
10910;SDS011;5508;49.150;11.030;2024-02-21T09:13:00;15.17;;;4.60;;
10910;SDS011;5508;49.150;11.030;2024-02-21T09:16:03;15.13;;;3.47;;
10910;SDS011;5508;49.150;11.030;2024-02-21T09:19:05;11.83;;;3.57;;
10910;SDS011;5508;49.150;11.030;2024-02-21T09:22:07;12.57;;;3.30;;
10910;SDS011;5508;49.150;11.030;2024-02-21T09:25:07;10.97;;;3.37;;
10910;SDS011;5508;49.150;11.030;2024-02-21T09:28:10;6.97;;;3.27;;
10910;SDS011;5508;49.150;11.030;2024-02-21T09:31:10;12.53;;;3.40;;
10910;SDS011;5508;49.150;11.030;2024-02-21T09:34:11;8.40;;;2.97;;
10910;SDS011;5508;49.150;11.030;2024-02-21T09:37:12;11.30;;;3.87;;
10910;SDS011;5508;49.150;11.030;2024-02-21T09:40:12;8.77;;;2.93;;
10910;SDS011;5508;49.150;11.030;2024-02-21T09:43:17;10.67;;;3.70;;
10910;SDS011;5508;49.150;11.030;2024-02-21T09:46:18;7.67;;;3.17;;
10910;SDS011;5508;49.150;11.030;2024-02-21T09:52:31;10.53;;;2.90;;
10910;SDS011;5508;49.150;11.030;2024-02-21T09:55:34;9.73;;;2.77;;
10910;SDS011;5508;49.150;11.030;2024-02-21T09:58:40;7.83;;;2.77;;
10910;SDS011;5508;49.150;11.030;2024-02-21T10:01:42;15.00;;;3.37;;
10910;SDS011;5508;49.150;11.030;2024-02-21T10:04:44;14.17;;;3.77;;
10910;SDS011;5508;49.150;11.030;2024-02-21T10:07:44;8.07;;;3.07;;
10910;SDS011;5508;49.150;11.030;2024-02-21T10:10:47;13.07;;;3.03;;
10910;SDS011;5508;49.150;11.030;2024-02-21T10:13:47;9.10;;;3.10;;
10910;SDS011;5508;49.150;11.030;2024-02-21T10:16:56;7.80;;;2.63;;
10910;SDS011;5508;49.150;11.030;2024-02-21T10:20:10;5.33;;;2.43;;
10910;SDS011;5508;49.150;11.030;2024-02-21T10:23:12;9.63;;;2.43;;
10910;SDS011;5508;49.150;11.030;2024-02-21T10:26:14;13.90;;;3.27;;
10910;SDS011;5508;49.150;11.030;2024-02-21T10:29:15;13.03;;;2.90;;
10910;SDS011;5508;49.150;11.030;2024-02-21T10:32:15;6.80;;;2.37;;
10910;SDS011;5508;49.150;11.030;2024-02-21T10:35:24;15.20;;;5.77;;
10910;SDS011;5508;49.150;11.030;2024-02-21T10:38:29;10.87;;;5.30;;
10910;SDS011;5508;49.150;11.030;2024-02-21T10:41:30;9.67;;;4.27;;
10910;SDS011;5508;49.150;11.030;2024-02-21T10:44:32;8.83;;;2.40;;
10910;SDS011;5508;49.150;11.030;2024-02-21T10:47:36;12.00;;;4.00;;
10910;SDS011;5508;49.150;11.030;2024-02-21T10:57:48;8.17;;;2.37;;
10910;SDS011;5508;49.150;11.030;2024-02-21T11:00:49;9.10;;;2.40;;
10910;SDS011;5508;49.150;11.030;2024-02-21T11:03:52;8.43;;;2.57;;
10910;SDS011;5508;49.150;11.030;2024-02-21T11:06:54;9.63;;;2.50;;
10910;SDS011;5508;49.150;11.030;2024-02-21T11:09:55;15.97;;;4.27;;
10910;SDS011;5508;49.150;11.030;2024-02-21T11:13:06;11.83;;;2.90;;
10910;SDS011;5508;49.150;11.030;2024-02-21T11:16:11;16.80;;;2.80;;
10910;SDS011;5508;49.150;11.030;2024-02-21T11:19:24;15.97;;;4.97;;
10910;SDS011;5508;49.150;11.030;2024-02-21T11:22:26;9.90;;;3.23;;
10910;SDS011;5508;49.150;11.030;2024-02-21T11:25:31;9.13;;;3.47;;
10910;SDS011;5508;49.150;11.030;2024-02-21T11:28:33;6.37;;;2.37;;
10910;SDS011;5508;49.150;11.030;2024-02-21T11:31:40;7.47;;;2.87;;
10910;SDS011;5508;49.150;11.030;2024-02-21T11:38:09;13.10;;;5.47;;
10910;SDS011;5508;49.150;11.030;2024-02-21T11:41:13;20.00;;;9.10;;
10910;SDS011;5508;49.150;11.030;2024-02-21T11:44:13;8.93;;;3.37;;
10910;SDS011;5508;49.150;11.030;2024-02-21T11:47:14;9.53;;;3.20;;
10910;SDS011;5508;49.150;11.030;2024-02-21T11:50:15;4.47;;;2.40;;
10910;SDS011;5508;49.150;11.030;2024-02-21T11:53:16;22.60;;;4.50;;
10910;SDS011;5508;49.150;11.030;2024-02-21T11:56:17;10.37;;;2.97;;
10910;SDS011;5508;49.150;11.030;2024-02-21T11:59:19;10.13;;;2.50;;
10910;SDS011;5508;49.150;11.030;2024-02-21T12:02:19;6.90;;;2.93;;
10910;SDS011;5508;49.150;11.030;2024-02-21T12:05:20;15.37;;;3.90;;
10910;SDS011;5508;49.150;11.030;2024-02-21T12:08:21;7.60;;;2.73;;
10910;SDS011;5508;49.150;11.030;2024-02-21T12:11:22;11.67;;;2.40;;
10910;SDS011;5508;49.150;11.030;2024-02-21T12:14:24;8.00;;;2.60;;
10910;SDS011;5508;49.150;11.030;2024-02-21T12:17:25;21.37;;;4.90;;
10910;SDS011;5508;49.150;11.030;2024-02-21T12:20:26;11.27;;;4.07;;
10910;SDS011;5508;49.150;11.030;2024-02-21T12:23:27;5.73;;;2.57;;
10910;SDS011;5508;49.150;11.030;2024-02-21T12:26:27;22.50;;;14.90;;
10910;SDS011;5508;49.150;11.030;2024-02-21T12:29:28;52.60;;;34.63;;
10910;SDS011;5508;49.150;11.030;2024-02-21T12:32:30;10.07;;;2.37;;
10910;SDS011;5508;49.150;11.030;2024-02-21T12:35:30;12.10;;;2.40;;
10910;SDS011;5508;49.150;11.030;2024-02-21T12:38:33;9.60;;;4.43;;
10910;SDS011;5508;49.150;11.030;2024-02-21T12:41:33;14.60;;;8.40;;
10910;SDS011;5508;49.150;11.030;2024-02-21T12:44:38;8.67;;;3.97;;
10910;SDS011;5508;49.150;11.030;2024-02-21T12:47:38;7.53;;;2.67;;
10910;SDS011;5508;49.150;11.030;2024-02-21T12:50:41;11.30;;;3.23;;
10910;SDS011;5508;49.150;11.030;2024-02-21T12:53:51;8.10;;;4.10;;
10910;SDS011;5508;49.150;11.030;2024-02-21T12:56:52;9.20;;;2.23;;
10910;SDS011;5508;49.150;11.030;2024-02-21T12:59:52;9.23;;;2.20;;
10910;SDS011;5508;49.150;11.030;2024-02-21T13:02:53;7.13;;;3.00;;
10910;SDS011;5508;49.150;11.030;2024-02-21T13:05:53;14.57;;;3.37;;
10910;SDS011;5508;49.150;11.030;2024-02-21T13:08:54;6.90;;;3.20;;
10910;SDS011;5508;49.150;11.030;2024-02-21T13:11:55;4.90;;;1.77;;
10910;SDS011;5508;49.150;11.030;2024-02-21T13:14:55;16.37;;;4.13;;
10910;SDS011;5508;49.150;11.030;2024-02-21T13:17:56;16.50;;;12.40;;
10910;SDS011;5508;49.150;11.030;2024-02-21T13:21:00;9.00;;;3.23;;
10910;SDS011;5508;49.150;11.030;2024-02-21T13:24:01;6.07;;;1.93;;
10910;SDS011;5508;49.150;11.030;2024-02-21T13:27:02;8.57;;;2.27;;
10910;SDS011;5508;49.150;11.030;2024-02-21T13:30:03;16.57;;;2.93;;
10910;SDS011;5508;49.150;11.030;2024-02-21T13:33:06;4.57;;;2.00;;
10910;SDS011;5508;49.150;11.030;2024-02-21T13:36:07;6.90;;;2.07;;
10910;SDS011;5508;49.150;11.030;2024-02-21T13:39:08;7.60;;;2.30;;
10910;SDS011;5508;49.150;11.030;2024-02-21T13:42:08;4.00;;;2.00;;
10910;SDS011;5508;49.150;11.030;2024-02-21T13:45:09;4.63;;;2.27;;
10910;SDS011;5508;49.150;11.030;2024-02-21T13:48:09;7.33;;;2.60;;
10910;SDS011;5508;49.150;11.030;2024-02-21T13:51:12;6.63;;;2.23;;
10910;SDS011;5508;49.150;11.030;2024-02-21T13:54:12;9.83;;;4.50;;
10910;SDS011;5508;49.150;11.030;2024-02-21T13:57:16;11.30;;;2.87;;
10910;SDS011;5508;49.150;11.030;2024-02-21T14:00:17;8.17;;;4.27;;
10910;SDS011;5508;49.150;11.030;2024-02-21T14:03:20;5.73;;;2.47;;
10910;SDS011;5508;49.150;11.030;2024-02-21T14:06:20;5.70;;;2.50;;
10910;SDS011;5508;49.150;11.030;2024-02-21T14:09:21;14.80;;;3.47;;
10910;SDS011;5508;49.150;11.030;2024-02-21T14:12:22;3.63;;;2.40;;
10910;SDS011;5508;49.150;11.030;2024-02-21T14:15:23;4.23;;;2.33;;
10910;SDS011;5508;49.150;11.030;2024-02-21T14:18:25;3.70;;;2.07;;
10910;SDS011;5508;49.150;11.030;2024-02-21T14:21:25;5.30;;;1.97;;
10910;SDS011;5508;49.150;11.030;2024-02-21T14:24:26;4.73;;;2.07;;
10910;SDS011;5508;49.150;11.030;2024-02-21T14:27:27;5.00;;;1.73;;
10910;SDS011;5508;49.150;11.030;2024-02-21T14:30:30;6.20;;;2.10;;
10910;SDS011;5508;49.150;11.030;2024-02-21T14:33:31;5.03;;;1.93;;
10910;SDS011;5508;49.150;11.030;2024-02-21T14:36:31;4.17;;;2.40;;
10910;SDS011;5508;49.150;11.030;2024-02-21T14:39:33;4.90;;;2.10;;
10910;SDS011;5508;49.150;11.030;2024-02-21T14:42:35;2.87;;;2.03;;
10910;SDS011;5508;49.150;11.030;2024-02-21T14:45:35;3.73;;;2.17;;
10910;SDS011;5508;49.150;11.030;2024-02-21T14:48:38;6.37;;;3.50;;
10910;SDS011;5508;49.150;11.030;2024-02-21T14:51:38;7.73;;;3.30;;
10910;SDS011;5508;49.150;11.030;2024-02-21T14:54:39;5.00;;;3.03;;
10910;SDS011;5508;49.150;11.030;2024-02-21T14:57:43;6.13;;;2.53;;
10910;SDS011;5508;49.150;11.030;2024-02-21T15:00:44;3.93;;;1.90;;
10910;SDS011;5508;49.150;11.030;2024-02-21T15:03:46;7.93;;;2.87;;
10910;SDS011;5508;49.150;11.030;2024-02-21T15:06:47;5.70;;;2.00;;
10910;SDS011;5508;49.150;11.030;2024-02-21T15:09:48;7.70;;;2.30;;
10910;SDS011;5508;49.150;11.030;2024-02-21T15:12:49;11.97;;;6.60;;
10910;SDS011;5508;49.150;11.030;2024-02-21T15:15:50;7.00;;;2.00;;
10910;SDS011;5508;49.150;11.030;2024-02-21T15:18:51;15.53;;;3.40;;
10910;SDS011;5508;49.150;11.030;2024-02-21T15:21:52;13.93;;;8.77;;
10910;SDS011;5508;49.150;11.030;2024-02-21T15:24:53;5.07;;;2.60;;
10910;SDS011;5508;49.150;11.030;2024-02-21T15:27:54;22.97;;;13.97;;
10910;SDS011;5508;49.150;11.030;2024-02-21T15:30:54;13.60;;;4.03;;
10910;SDS011;5508;49.150;11.030;2024-02-21T15:33:55;10.77;;;8.13;;
10910;SDS011;5508;49.150;11.030;2024-02-21T15:36:56;6.20;;;3.50;;
10910;SDS011;5508;49.150;11.030;2024-02-21T15:39:57;4.70;;;3.30;;
10910;SDS011;5508;49.150;11.030;2024-02-21T15:42:57;3.97;;;1.73;;
10910;SDS011;5508;49.150;11.030;2024-02-21T15:45:58;2.67;;;1.73;;
10910;SDS011;5508;49.150;11.030;2024-02-21T15:48:58;4.80;;;2.27;;
10910;SDS011;5508;49.150;11.030;2024-02-21T15:52:00;4.30;;;2.93;;
10910;SDS011;5508;49.150;11.030;2024-02-21T15:55:01;3.27;;;1.67;;
10910;SDS011;5508;49.150;11.030;2024-02-21T15:58:01;6.47;;;3.30;;
10910;SDS011;5508;49.150;11.030;2024-02-21T16:01:04;6.13;;;2.53;;
10910;SDS011;5508;49.150;11.030;2024-02-21T16:04:05;4.70;;;2.13;;
10910;SDS011;5508;49.150;11.030;2024-02-21T16:07:05;6.80;;;1.87;;
10910;SDS011;5508;49.150;11.030;2024-02-21T16:10:06;7.50;;;2.03;;
10910;SDS011;5508;49.150;11.030;2024-02-21T16:13:07;6.60;;;3.57;;
10910;SDS011;5508;49.150;11.030;2024-02-21T16:16:10;9.93;;;4.73;;
10910;SDS011;5508;49.150;11.030;2024-02-21T16:19:11;10.93;;;5.70;;
10910;SDS011;5508;49.150;11.030;2024-02-21T16:22:11;9.30;;;4.97;;
10910;SDS011;5508;49.150;11.030;2024-02-21T16:25:13;9.67;;;4.00;;
10910;SDS011;5508;49.150;11.030;2024-02-21T16:28:14;4.73;;;2.20;;
10910;SDS011;5508;49.150;11.030;2024-02-21T16:31:14;6.57;;;3.23;;
10910;SDS011;5508;49.150;11.030;2024-02-21T16:34:16;10.57;;;7.27;;
10910;SDS011;5508;49.150;11.030;2024-02-21T16:37:16;7.80;;;4.30;;
10910;SDS011;5508;49.150;11.030;2024-02-21T16:40:17;6.07;;;3.57;;
10910;SDS011;5508;49.150;11.030;2024-02-21T16:43:18;9.50;;;4.53;;
10910;SDS011;5508;49.150;11.030;2024-02-21T16:46:19;4.27;;;2.87;;
10910;SDS011;5508;49.150;11.030;2024-02-21T16:49:20;3.77;;;2.37;;
10910;SDS011;5508;49.150;11.030;2024-02-21T16:52:21;7.50;;;4.13;;
10910;SDS011;5508;49.150;11.030;2024-02-21T16:55:22;13.33;;;11.73;;
10910;SDS011;5508;49.150;11.030;2024-02-21T16:58:22;22.57;;;16.53;;
10910;SDS011;5508;49.150;11.030;2024-02-21T17:01:23;10.33;;;8.73;;
10910;SDS011;5508;49.150;11.030;2024-02-21T17:04:23;9.13;;;5.40;;
10910;SDS011;5508;49.150;11.030;2024-02-21T17:07:24;8.33;;;6.13;;
10910;SDS011;5508;49.150;11.030;2024-02-21T17:10:25;8.97;;;5.70;;
10910;SDS011;5508;49.150;11.030;2024-02-21T17:13:25;6.83;;;5.27;;
10910;SDS011;5508;49.150;11.030;2024-02-21T17:16:26;5.50;;;3.13;;
10910;SDS011;5508;49.150;11.030;2024-02-21T17:19:26;8.93;;;5.40;;
10910;SDS011;5508;49.150;11.030;2024-02-21T17:22:27;9.37;;;5.30;;
10910;SDS011;5508;49.150;11.030;2024-02-21T17:25:27;8.87;;;4.10;;
10910;SDS011;5508;49.150;11.030;2024-02-21T17:28:29;6.33;;;3.80;;
10910;SDS011;5508;49.150;11.030;2024-02-21T17:31:31;5.67;;;3.97;;
10910;SDS011;5508;49.150;11.030;2024-02-21T17:34:31;3.63;;;2.70;;
10910;SDS011;5508;49.150;11.030;2024-02-21T17:37:32;10.67;;;3.93;;
10910;SDS011;5508;49.150;11.030;2024-02-21T17:40:36;6.77;;;3.77;;
10910;SDS011;5508;49.150;11.030;2024-02-21T17:43:37;5.60;;;3.40;;
10910;SDS011;5508;49.150;11.030;2024-02-21T17:46:41;7.90;;;4.50;;
10910;SDS011;5508;49.150;11.030;2024-02-21T17:49:44;8.47;;;4.80;;
10910;SDS011;5508;49.150;11.030;2024-02-21T17:52:46;14.50;;;9.10;;
10910;SDS011;5508;49.150;11.030;2024-02-21T17:55:47;13.17;;;11.60;;
10910;SDS011;5508;49.150;11.030;2024-02-21T17:58:47;15.30;;;8.40;;
10910;SDS011;5508;49.150;11.030;2024-02-21T18:01:48;14.57;;;8.77;;
10910;SDS011;5508;49.150;11.030;2024-02-21T18:04:49;11.47;;;8.13;;
10910;SDS011;5508;49.150;11.030;2024-02-21T18:07:49;10.60;;;7.27;;
10910;SDS011;5508;49.150;11.030;2024-02-21T18:10:50;11.07;;;8.90;;
10910;SDS011;5508;49.150;11.030;2024-02-21T18:13:51;12.87;;;9.27;;